Agat, GU

7:58 PM ChST on September 02, 2014 (GMT +1000)
Ordot Dump | Change Station
CLOSE
Current Station
Personal Weather Station
Location: Chalan Pago Ordot,
Elevation: 282 ft
Nearby Weather Stations

Elev 282 ft 13.44 °N, 144.75 °E | Updated 18 seconds ago

Light Thunderstorms and Rain
Light Thunderstorm Rain
76.3 °F
Feels Like 76 °F
N
4.0
Wind Variable Wind from West
Gusts 8.0 mph

Today
High -- | Low -- °F
--% Chance of Precip.
Yesterday
High -- | Low -- °F
Precip. -- in
6:10 AM 6:32 PM
Waxing Crescent, 50% visible
Pressure 29.84 in
Visibility 10.0 miles
Clouds Mostly Cloudy 2400 ft
Mostly Cloudy 4100 ft
Overcast 7500 ft
Heat Index 76 °F
Dew Point 75 °F
Humidity 96%
Rainfall 0.23 in
Snow Depth Not available.
UV 0 out of 12
Pollen Not available.
Air Quality Not available.
Flu Activity Not available.
SPECI PGUM 020956Z 19006KT 10SM -TSRA BKN024CB BKN041 OVC075 26/24 A2984 RMK AO2 TSB56 OCNL LTGICCC DSNT E TS NE MOV E P0000

More Conditions Fewer Conditions

Pressure 29.84 in
Visibility 10.0 miles
Clouds Mostly Cloudy 2400 ft
Mostly Cloudy 4100 ft
Overcast 7500 ft
Heat Index 76 °F
Dew Point 75 °F
Humidity 96%
Rainfall 0.23 in
Snow Depth Not available.
UV 0 out of 12
Pollen Not available.
Air Quality Not available.
Flu Activity Not available.
SPECI PGUM 020956Z 19006KT 10SM -TSRA BKN024CB BKN041 OVC075 26/24 A2984 RMK AO2 TSB56 OCNL LTGICCC DSNT E TS NE MOV E P0000

More Conditions Fewer Conditions

10-Day Weather Forecast

Almanac

Astronomy

Sep. 02, 2014 Rise Set
Actual Time 6:10 AM ChST 6:32 PM ChST
Civil Twilight 5:48 AM ChST 6:53 PM ChST
Nautical Twilight 5:23 AM ChST 7:18 PM ChST
Astronomical Twilight 4:58 AM ChST 7:43 PM ChST
Moon 12:09 PM ChST 11:58 PM ChST
Length of Visible Light 13h 05m
Length of Day
12h 22m
Tomorrow will be 0m 43s shorter.
Waxing Crescent, 50% of the Moon is Illuminated
Today
Waxing Crescent
Sep 2
First Quarter
Sep 8
Full
Sep 15
Last Quarter
Sep 24
New

Community

WunderPhotos

Upload Photos

1,749,587 photos uploaded!

WunderBlogs® & News

Nearby

Snow Depth

Station Depth Elevation
No new snow has been reported.

Earthquake Activity

City Distance Mag. Time & Date
No recent earthquake activity has been reported nearby.
Minimum magnitude displayed is 2.5.

Coastal Water Temperatures

Place Temperature
No Stations Reporting

Nearby Weather Stations